La Monte, Missouri
Current Conditions -  °F | °C
As of 1:58 AM on Friday 31 Oct 2014 (Local Time) from KSZL Reporting Station
Clear Clear  
Wind Chill: 43°   Ceiling: Unl
Heat Index: 49°   Visibility: 9mi
Dew Point: 38°   Wind: 17mph
Humidity: 66%   Direction: 340°NNW
Pressure: 30.17"   Gusts: 23mph
Location:  38.77°N, 93.43°W
Report Text: KSZL 310658Z AUTO 34015G20KT 9SM R01/5500FT CLR 10/04 A3017 RMK AO2 SLP218 T00960036 $
Loading
Personal Weather Stations






























Interactive Weather Map
Tropical Storm Tracking
New forecast layout! Learn more

10-Day Weather Forecast

Advertisements
Track Severe Weather on mobile